Les articles d'ExpertMaritime.pro


Votre expert maritime indépendant Xavier Braive est disponible sur la zone de Saujon - Port de Ribérou - 17600

(Charente-Maritime - Poitou-Charentes)


Voir plan
Situation :

Le port de Ribérou est un port de pêche et de plaisance situé au fond de l'estuaire de la Seudre, à Saujon. C'est l'un des deux ports de la ville avec celui du Breuil, un peu en aval.

Actif dès le XIe siècle, il prend son aspect actuel à partir de 1842, sous l'impulsion du ministre des travaux publics de l'époque, Jules Dufaure, " enfant du pays", qui tente ainsi de relancer le commerce maritime et les activités halieutiques, alors en déclin.
Idéalement situé, en marge du centre-ville, de la base de loisirs de La Lande et des espaces préservés des marais de la Seudre (chemins de halage transformés en sentiers de promenade), il est devenu un des hauts lieux du tourisme saujonnais, où sont notamment organisés des soirées thématiques et le feu d'artifice du 14 juillet.

En 2011, le port de Ribérou a été l'objet d'un important programme de rénovation urbaine conduit par l'architecte-urbaniste Sophie Blanchet, complétant des efforts déjà mis en œuvre en centre-ville.
Une partie du site est reconvertie en esplanade piétonne, dotée d'un mobilier urbain contemporain : il se veut une sorte de "trait d'union" entre la base de loisirs de La Lande (piscine, tennis, boulodrome, stade, terrain de basket...), les sentiers de promenade et de découverte des marais de la Seudre, qui débutent au port, et le centre-ville.
L'inauguration du nouveau port a lieu le 18 août 2012, en présence du maire, Pascal Ferchaud, et d'une foule nombreuse venue profiter des animations : concerts, jeux nautiques, joutes, etc.

Aujourd'hui, le port de Ribérou est un petit port de pêche et de plaisance. C'est également une base de départ pour certains sports nautiques (canoë-kayak). Sa longueur est d'environ 250 mètres pour 40 mètres.
Depuis Ribérou, il est possible d'atteindre successivement les ports du Breuil (Saujon), de L'Éguille, de Mornac, de Chaillevette, de Chatressac (Chaillevette), des Grandes Roches et d'Orivol (Étaules), de La Grève à Duret et de Coux (Arvert), de La Grève (La Tremblade) et de La Cayenne (Marennes).


En 2011, la municipalité entame un programme de rénovation du site portuaire, confié à l'architecte-urbaniste Sophie Blanchet. Il consiste en une transformation des anciens parkings en esplanade piétonne, véritable espace de rencontre doté d'un mobilier urbain moderne et à terme, d'espaces verts. Depuis les quais, bordés d'immeubles bourgeois, de petites rues pittoresques et fleuries de roses trémières permettent de sillonner le quartier et de rejoindre le centre-ville.

Le pont à écluse de Ribérou, dit « pont des eaux contraires », a été rénové en 2010. Il marque la séparation entre les eaux de l'estuaire (côté port : eaux saumâtres) et les eaux du fleuve (côté bassin de retenue : eaux douces).



Adresse :

Mairie
1, place Denfert Rochereau
17600 SAUJON

Tél/Fax : 05 46 02 80 07 / 05 46 02 91 92

E-mail : contact@mairie-saujon.fr
Météo locale sur la zone Port de Ribérou
Heure (UTC) Dir.Vent Vit.Vent (nds) Force (Bft) T°min T°max P (mb) Hum.Rel.
29/05/2022 - 09:00:00 au 29/05/2022 - 12:00:00 046° (NE) 13 4 19°C 19°C 1013 39 %
29/05/2022 - 12:00:00 au 29/05/2022 - 15:00:00 040° (NE) 12 4 19°C 20°C 1013 37 %
29/05/2022 - 15:00:00 au 29/05/2022 - 18:00:00 038° (NE) 12 4 18°C 18°C 1012 41 %
29/05/2022 - 18:00:00 au 29/05/2022 - 21:00:00 028° (NNE) 9 3 13°C 13°C 1011 54 %
29/05/2022 - 21:00:00 au 30/05/2022 - 00:00:00 037° (NE) 10 3 10°C 10°C 1011 65 %
30/05/2022 - 00:00:00 au 30/05/2022 - 03:00:00 042° (NE) 9 3 8°C 8°C 1011 73 %
30/05/2022 - 03:00:00 au 30/05/2022 - 06:00:00 049° (NE) 10 3 10°C 10°C 1011 67 %
30/05/2022 - 06:00:00 au 30/05/2022 - 09:00:00 051° (NE) 10 3 16°C 16°C 1011 48 %
30/05/2022 - 09:00:00 au 30/05/2022 - 12:00:00 052° (NE) 7 3 20°C 20°C 1011 37 %
30/05/2022 - 12:00:00 au 30/05/2022 - 15:00:00 334° (NNW) 6 2 21°C 21°C 1010 36 %
30/05/2022 - 15:00:00 au 30/05/2022 - 18:00:00 326° (NW) 11 4 17°C 17°C 1011 55 %
30/05/2022 - 18:00:00 au 30/05/2022 - 21:00:00 343° (NNW) 8 3 14°C 14°C 1013 74 %
30/05/2022 - 21:00:00 au 31/05/2022 - 00:00:00 349° (N) 3 1 14°C 14°C 1014 67 %
31/05/2022 - 00:00:00 au 31/05/2022 - 03:00:00 352° (N) 3 1 13°C 13°C 1015 76 %
31/05/2022 - 03:00:00 au 31/05/2022 - 06:00:00 256° (WSW) 1 1 14°C 14°C 1016 69 %
31/05/2022 - 06:00:00 au 31/05/2022 - 09:00:00 287° (WNW) 4 2 19°C 19°C 1017 51 %
31/05/2022 - 09:00:00 au 31/05/2022 - 12:00:00 286° (WNW) 6 2 21°C 21°C 1017 47 %
31/05/2022 - 12:00:00 au 31/05/2022 - 15:00:00 301° (WNW) 7 3 21°C 21°C 1016 46 %
31/05/2022 - 15:00:00 au 31/05/2022 - 18:00:00 338° (NNW) 7 3 18°C 18°C 1016 54 %
31/05/2022 - 18:00:00 au 31/05/2022 - 21:00:00 015° (NNE) 6 2 15°C 15°C 1017 54 %
31/05/2022 - 21:00:00 au 01/06/2022 - 00:00:00 041° (NE) 6 2 15°C 15°C 1017 49 %
01/06/2022 - 00:00:00 au 01/06/2022 - 03:00:00 051° (NE) 6 2 13°C 13°C 1016 59 %
01/06/2022 - 03:00:00 au 01/06/2022 - 06:00:00 087° (E) 7 3 15°C 15°C 1015 65 %
01/06/2022 - 06:00:00 au 01/06/2022 - 09:00:00 076° (ENE) 7 3 21°C 21°C 1015 56 %
01/06/2022 - 09:00:00 au 01/06/2022 - 12:00:00 083° (E) 9 3 27°C 27°C 1014 39 %
01/06/2022 - 12:00:00 au 01/06/2022 - 15:00:00 086° (E) 8 3 29°C 29°C 1012 36 %
01/06/2022 - 15:00:00 au 01/06/2022 - 18:00:00 062° (ENE) 4 2 27°C 27°C 1011 49 %
01/06/2022 - 18:00:00 au 01/06/2022 - 21:00:00 119° (ESE) 7 3 20°C 20°C 1012 67 %
01/06/2022 - 21:00:00 au 02/06/2022 - 00:00:00 077° (ENE) 2 1 17°C 17°C 1013 80 %
02/06/2022 - 00:00:00 au 02/06/2022 - 03:00:00 173° (S) 3 1 17°C 17°C 1012 80 %
02/06/2022 - 03:00:00 au 02/06/2022 - 06:00:00 176° (S) 5 2 19°C 19°C 1013 81 %
02/06/2022 - 06:00:00 au 02/06/2022 - 09:00:00 190° (S) 5 2 24°C 24°C 1013 60 %
02/06/2022 - 09:00:00 au 02/06/2022 - 12:00:00 219° (SW) 6 2 26°C 26°C 1013 51 %
02/06/2022 - 12:00:00 au 02/06/2022 - 15:00:00 258° (WSW) 8 3 26°C 26°C 1012 54 %
02/06/2022 - 15:00:00 au 02/06/2022 - 18:00:00 303° (WNW) 8 3 22°C 22°C 1011 65 %
02/06/2022 - 18:00:00 au 02/06/2022 - 21:00:00 336° (NNW) 5 2 17°C 17°C 1013 88 %
02/06/2022 - 21:00:00 au 03/06/2022 - 00:00:00 300° (WNW) 2 1 18°C 18°C 1013 82 %
03/06/2022 - 00:00:00 au 03/06/2022 - 03:00:00 309° (NW) 3 1 17°C 17°C 1013 89 %
03/06/2022 - 03:00:00 au 03/06/2022 - 06:00:00 174° (S) 2 1 18°C 18°C 1013 81 %
03/06/2022 - 06:00:00 au 03/06/2022 - 09:00:00 205° (SSW) 2 1 23°C 23°C 1014 61 %
openweathermap
Ces informations sont partiellement extraites de Wikipedia, et des sites pertinents pour cette zone. Compilation d'informations de Xavier Braive.
Xavier Braive, Expert Maritime Plaisance se déplace sur Port de Ribérou, Saujon, 17600, Charente-Maritime

Welcome to Cross-Channel yachtmen !

we can deliver survey reports in english, in case of dammage or prior to buy / sell a boat in France (pre-purchase survey), and more specifically on the Atlantic coast.

Uw onafhankelijk jachtexpert

verkrijkbaar op de Atlantische kust, bij aankoop of reparatie van jachten (metaal, polyester of composiet). Rapporten in Nederlands

BRAIVE, Xavier
Xavier Braive
Expert Maritime
Nouvelle Aquitaine
France
07 64 82 25 44